Time;durP1;ratioP1;P1;durP2;ratioP2;P2;SDS_P1;SDS_P2;PMS_P1;PMS_P2;Temp;Humidity;BMP_temperature;BMP_pressure;BME280_temperature;BME280_humidity;BME280_pressure;Samples;Min_cycle;Max_cycle;Signal;HPM_P1;HPM_P2
2023/11/30 00:01:57;;;;;;;10.95;6.40;;;;;;;;;;5064912;28;20508;-89
2023/11/30 00:04:22;;;;;;;14.10;7.30;;;;;;;;;;5059428;28;20025;-90
2023/11/30 00:06:48;;;;;;;12.02;7.15;;;;;;;;;;5063520;28;20153;-90
2023/11/30 00:09:13;;;;;;;11.23;6.72;;;;;;;;;;5067935;28;20027;-90
2023/11/30 00:11:38;;;;;;;10.80;6.93;;;;;;;;;;5065560;28;20206;-90
2023/11/30 00:14:04;;;;;;;11.25;6.85;;;;;;;;;;5069815;28;20119;-90
2023/11/30 00:16:29;;;;;;;13.00;7.78;;;;;;;;;;5068580;28;20389;-90
2023/11/30 00:18:55;;;;;;;14.52;7.68;;;;;;;;;;5053266;28;20077;-89
2023/11/30 00:21:21;;;;;;;11.82;7.70;;;;;;;;;;5067470;28;20033;-90
2023/11/30 00:23:46;;;;;;;13.07;7.45;;;;;;;;;;5066659;28;20086;-90
2023/11/30 00:26:13;;;;;;;13.27;7.57;;;;;;;;;;5068843;28;20052;-90
2023/11/30 00:28:38;;;;;;;12.50;7.18;;;;;;;;;;5071513;28;20086;-90
2023/11/30 00:31:04;;;;;;;11.50;7.57;;;;;;;;;;5063714;28;20448;-90
2023/11/30 00:33:29;;;;;;;12.55;7.32;;;;;;;;;;5065893;28;20559;-90
2023/11/30 00:35:55;;;;;;;12.00;7.55;;;;;;;;;;5069449;28;20028;-89
2023/11/30 00:38:20;;;;;;;13.88;7.82;;;;;;;;;;5065280;28;20020;-82
2023/11/30 00:40:46;;;;;;;11.85;7.00;;;;;;;;;;5066474;28;20383;-83
2023/11/30 00:43:11;;;;;;;13.27;7.22;;;;;;;;;;5067706;28;20103;-82
2023/11/30 00:45:36;;;;;;;11.43;7.05;;;;;;;;;;5069431;28;20028;-82
2023/11/30 00:48:03;;;;;;;12.00;7.13;;;;;;;;;;5054845;28;20248;-81
2023/11/30 00:50:28;;;;;;;12.27;7.72;;;;;;;;;;5065562;28;20024;-82
2023/11/30 00:52:54;;;;;;;12.50;7.45;;;;;;;;;;5063072;28;20027;-82
2023/11/30 00:55:20;;;;;;;11.77;7.20;;;;;;;;;;5060662;28;20016;-81
2023/11/30 00:57:45;;;;;;;13.35;6.95;;;;;;;;;;5063988;28;20025;-82
2023/11/30 01:00:11;;;;;;;12.00;7.30;;;;;;;;;;5064347;28;20051;-82
2023/11/30 01:02:38;;;;;;;12.23;7.18;;;;;;;;;;5064209;28;20033;-82
2023/11/30 01:05:03;;;;;;;11.32;7.20;;;;;;;;;;5065993;28;20486;-82
2023/11/30 01:07:29;;;;;;;12.98;7.88;;;;;;;;;;5064616;28;20105;-82
2023/11/30 01:09:56;;;;;;;9.75;7.07;;;;;;;;;;5067184;28;20120;-82
2023/11/30 01:12:22;;;;;;;12.60;7.57;;;;;;;;;;5066425;28;20030;-82
2023/11/30 01:14:47;;;;;;;11.15;7.20;;;;;;;;;;5066945;28;20382;-81
2023/11/30 01:17:13;;;;;;;12.07;7.65;;;;;;;;;;5067985;28;20404;-82
2023/11/30 01:19:38;;;;;;;12.77;7.38;;;;;;;;;;5064584;28;20390;-81
2023/11/30 01:22:07;;;;;;;13.15;7.20;;;;;;;;;;5068451;28;20095;-82
2023/11/30 01:24:33;;;;;;;11.23;7.38;;;;;;;;;;5061292;28;20108;-81
2023/11/30 01:26:58;;;;;;;12.27;7.47;;;;;;;;;;5068094;28;20104;-81
2023/11/30 01:29:23;;;;;;;11.70;7.45;;;;;;;;;;5065057;28;20813;-81
2023/11/30 01:31:49;;;;;;;12.80;8.00;;;;;;;;;;5064074;28;20403;-82
2023/11/30 01:34:14;;;;;;;11.32;7.53;;;;;;;;;;5071289;28;20037;-82
2023/11/30 01:36:40;;;;;;;11.35;7.70;;;;;;;;;;5066537;28;20452;-82
2023/11/30 01:39:07;;;;;;;13.55;8.10;;;;;;;;;;5070380;28;20174;-81
2023/11/30 01:41:36;;;;;;;16.55;8.25;;;;;;;;;;5071793;28;20481;-81
2023/11/30 01:44:06;;;;;;;11.90;7.90;;;;;;;;;;5068541;28;20031;-82
2023/11/30 01:46:32;;;;;;;11.07;7.68;;;;;;;;;;5067165;28;20024;-84
2023/11/30 01:48:59;;;;;;;11.25;7.38;;;;;;;;;;5067878;28;20082;-82
2023/11/30 01:51:27;;;;;;;12.48;8.02;;;;;;;;;;5069034;28;20032;-82
2023/11/30 01:53:54;;;;;;;13.82;8.07;;;;;;;;;;5073138;28;20113;-82
2023/11/30 01:56:21;;;;;;;12.68;8.20;;;;;;;;;;5069072;28;20409;-82
2023/11/30 01:58:48;;;;;;;11.73;7.93;;;;;;;;;;5060811;28;20025;-82
2023/11/30 02:01:15;;;;;;;13.75;8.63;;;;;;;;;;5068424;28;20067;-81
2023/11/30 02:03:43;;;;;;;13.38;8.48;;;;;;;;;;5081194;28;20048;-81
2023/11/30 02:06:08;;;;;;;11.50;7.47;;;;;;;;;;5065830;28;20032;-81
2023/11/30 02:08:34;;;;;;;14.07;8.15;;;;;;;;;;5068399;28;20390;-81
2023/11/30 02:11:01;;;;;;;15.85;8.43;;;;;;;;;;5070500;28;20016;-81
2023/11/30 02:13:26;;;;;;;13.25;8.35;;;;;;;;;;5069024;28;20037;-81
2023/11/30 02:15:52;;;;;;;13.73;8.52;;;;;;;;;;5067619;28;20025;-81
2023/11/30 02:18:17;;;;;;;15.88;9.32;;;;;;;;;;5065688;28;20428;-82
2023/11/30 02:20:43;;;;;;;13.05;8.23;;;;;;;;;;5068295;28;20367;-82
2023/11/30 02:23:08;;;;;;;14.73;8.05;;;;;;;;;;5066066;28;20103;-81
2023/11/30 02:25:33;;;;;;;16.63;9.00;;;;;;;;;;5073106;28;20099;-81
2023/11/30 02:27:59;;;;;;;15.13;8.30;;;;;;;;;;5068945;28;20374;-81
2023/11/30 02:30:25;;;;;;;12.77;8.15;;;;;;;;;;5065933;28;20036;-81
2023/11/30 02:32:50;;;;;;;13.30;8.10;;;;;;;;;;5079872;28;20032;-81
2023/11/30 02:35:16;;;;;;;14.27;8.50;;;;;;;;;;5060228;28;20028;-81
2023/11/30 02:37:41;;;;;;;12.73;8.10;;;;;;;;;;5064015;28;20024;-81
2023/11/30 02:40:07;;;;;;;16.73;9.25;;;;;;;;;;5061862;28;20390;-81
2023/11/30 02:42:36;;;;;;;14.48;8.30;;;;;;;;;;5069346;28;20035;-81
2023/11/30 02:45:01;;;;;;;13.75;8.57;;;;;;;;;;5071056;28;20032;-81
2023/11/30 02:47:27;;;;;;;14.38;8.57;;;;;;;;;;5063373;28;20020;-81
2023/11/30 02:49:54;;;;;;;13.23;8.05;;;;;;;;;;5069355;28;20028;-81
2023/11/30 02:52:20;;;;;;;13.07;7.93;;;;;;;;;;5071009;28;20040;-81
2023/11/30 02:54:45;;;;;;;15.48;8.73;;;;;;;;;;5065817;28;20344;-81
2023/11/30 02:57:12;;;;;;;14.23;8.55;;;;;;;;;;5069540;28;20027;-81
2023/11/30 02:59:38;;;;;;;15.85;8.85;;;;;;;;;;5067723;28;20024;-81
2023/11/30 03:02:03;;;;;;;11.95;7.50;;;;;;;;;;5067038;28;20028;-80
2023/11/30 03:04:30;;;;;;;16.38;8.45;;;;;;;;;;5067865;28;20027;-81
2023/11/30 03:06:55;;;;;;;13.60;8.38;;;;;;;;;;5104418;28;20116;-81
2023/11/30 03:09:21;;;;;;;14.48;8.27;;;;;;;;;;5071192;28;20098;-81
2023/11/30 03:11:46;;;;;;;13.00;8.05;;;;;;;;;;5063898;28;20032;-81
2023/11/30 03:14:14;;;;;;;16.30;8.73;;;;;;;;;;5067593;28;20060;-81
2023/11/30 03:16:40;;;;;;;13.60;8.13;;;;;;;;;;5080842;28;20029;-81
2023/11/30 03:19:08;;;;;;;14.30;8.23;;;;;;;;;;5064731;28;20198;-81
2023/11/30 03:21:33;;;;;;;12.63;8.23;;;;;;;;;;5059521;28;20103;-81
2023/11/30 03:23:59;;;;;;;12.90;8.15;;;;;;;;;;5062933;28;20112;-81
2023/11/30 03:26:24;;;;;;;11.60;7.63;;;;;;;;;;5068050;28;20111;-81
2023/11/30 03:28:50;;;;;;;12.40;8.25;;;;;;;;;;5065088;28;20041;-81
2023/11/30 03:31:15;;;;;;;11.40;7.28;;;;;;;;;;5064091;28;20028;-81
2023/11/30 03:33:42;;;;;;;15.38;8.50;;;;;;;;;;5065836;28;20036;-81
2023/11/30 03:36:08;;;;;;;12.23;8.35;;;;;;;;;;5068854;28;20473;-81
2023/11/30 03:38:33;;;;;;;11.73;7.47;;;;;;;;;;5059836;28;20033;-81
2023/11/30 03:40:59;;;;;;;13.20;8.25;;;;;;;;;;5067191;28;20021;-80
2023/11/30 03:43:25;;;;;;;12.75;8.15;;;;;;;;;;5066854;28;20021;-80
2023/11/30 03:45:50;;;;;;;12.55;7.75;;;;;;;;;;5066643;28;20042;-81
2023/11/30 03:48:16;;;;;;;13.80;8.48;;;;;;;;;;5062675;28;20090;-80
2023/11/30 03:50:43;;;;;;;14.85;8.35;;;;;;;;;;5077759;28;20036;-81
2023/11/30 03:53:08;;;;;;;13.63;8.30;;;;;;;;;;5067710;28;20028;-81
2023/11/30 03:55:34;;;;;;;14.25;8.40;;;;;;;;;;5063935;28;20020;-81
2023/11/30 03:58:00;;;;;;;14.98;9.02;;;;;;;;;;5065974;28;20036;-80
2023/11/30 04:00:25;;;;;;;12.68;7.38;;;;;;;;;;5068725;28;20032;-80
2023/11/30 04:02:50;;;;;;;15.02;8.93;;;;;;;;;;5065246;28;20398;-80
2023/11/30 04:05:19;;;;;;;12.98;8.30;;;;;;;;;;5067599;28;20055;-80
2023/11/30 04:07:46;;;;;;;14.27;8.65;;;;;;;;;;5068841;28;20103;-80
2023/11/30 04:10:12;;;;;;;13.77;8.45;;;;;;;;;;5064800;28;20035;-80
2023/11/30 04:12:38;;;;;;;13.77;8.52;;;;;;;;;;5066360;28;20021;-80
2023/11/30 04:15:05;;;;;;;13.98;8.50;;;;;;;;;;5066102;28;20050;-80
2023/11/30 04:17:31;;;;;;;14.10;8.93;;;;;;;;;;5068077;28;20021;-89
2023/11/30 04:19:57;;;;;;;14.27;8.85;;;;;;;;;;5069756;28;20021;-89
2023/11/30 04:22:23;;;;;;;14.13;9.30;;;;;;;;;;5071083;28;20023;-88
2023/11/30 04:24:48;;;;;;;15.80;8.57;;;;;;;;;;5071799;28;20020;-89
2023/11/30 04:27:14;;;;;;;15.02;9.18;;;;;;;;;;5064716;28;20116;-89
2023/11/30 04:29:39;;;;;;;15.27;9.20;;;;;;;;;;5065359;28;20028;-89
2023/11/30 04:32:05;;;;;;;15.98;9.32;;;;;;;;;;5064376;28;20021;-88
2023/11/30 04:34:30;;;;;;;15.98;9.35;;;;;;;;;;5061916;28;20028;-89
2023/11/30 04:36:56;;;;;;;14.27;9.25;;;;;;;;;;5071200;28;20035;-80
2023/11/30 04:39:22;;;;;;;14.55;9.15;;;;;;;;;;5067909;28;20031;-80
2023/11/30 04:41:49;;;;;;;18.52;9.80;;;;;;;;;;5061484;28;20031;-80
2023/11/30 04:44:14;;;;;;;14.40;9.10;;;;;;;;;;5062512;28;20020;-80
2023/11/30 04:46:39;;;;;;;15.70;8.75;;;;;;;;;;5063383;28;20028;-80
2023/11/30 04:49:05;;;;;;;13.30;8.68;;;;;;;;;;5067424;28;20107;-80
2023/11/30 04:51:30;;;;;;;14.60;9.05;;;;;;;;;;5070138;28;20070;-80
2023/11/30 04:53:56;;;;;;;13.45;8.20;;;;;;;;;;5066389;28;20032;-80
2023/11/30 04:56:21;;;;;;;13.00;8.70;;;;;;;;;;5066662;28;20017;-80
2023/11/30 04:58:47;;;;;;;15.60;9.02;;;;;;;;;;5067311;28;20393;-80
2023/11/30 05:01:12;;;;;;;14.93;9.48;;;;;;;;;;5064967;28;20405;-80
2023/11/30 05:03:38;;;;;;;15.32;9.07;;;;;;;;;;5064122;28;20543;-80
2023/11/30 05:06:03;;;;;;;15.63;9.02;;;;;;;;;;5065752;28;20033;-80
2023/11/30 05:08:29;;;;;;;14.60;9.10;;;;;;;;;;5069402;28;20024;-80
2023/11/30 05:10:54;;;;;;;14.75;9.00;;;;;;;;;;5065230;28;20025;-80
2023/11/30 05:13:20;;;;;;;13.65;8.73;;;;;;;;;;5064089;28;20116;-80
2023/11/30 05:15:46;;;;;;;15.32;9.27;;;;;;;;;;5071151;28;20024;-80
2023/11/30 05:18:12;;;;;;;14.40;9.07;;;;;;;;;;5060301;28;20032;-80
2023/11/30 05:20:37;;;;;;;15.65;8.75;;;;;;;;;;5068708;28;20443;-81
2023/11/30 05:23:03;;;;;;;13.75;8.80;;;;;;;;;;5070600;28;20029;-80
2023/11/30 05:25:28;;;;;;;14.05;8.98;;;;;;;;;;5068920;28;20028;-80
2023/11/30 05:27:55;;;;;;;14.40;9.65;;;;;;;;;;5070588;28;20021;-82
2023/11/30 05:30:20;;;;;;;15.15;10.25;;;;;;;;;;5068436;28;20098;-80
2023/11/30 05:32:45;;;;;;;15.20;9.18;;;;;;;;;;5066570;28;20486;-80
2023/11/30 05:35:11;;;;;;;13.70;9.38;;;;;;;;;;5062438;28;20029;-80
2023/11/30 05:37:36;;;;;;;16.13;9.60;;;;;;;;;;5053797;28;20037;-80
2023/11/30 05:40:04;;;;;;;16.75;9.95;;;;;;;;;;5062039;28;20025;-80
2023/11/30 05:42:29;;;;;;;14.20;9.15;;;;;;;;;;5076270;28;20482;-80
2023/11/30 05:44:54;;;;;;;13.48;9.20;;;;;;;;;;5059175;28;20031;-79
2023/11/30 05:47:21;;;;;;;14.65;9.27;;;;;;;;;;5067384;28;20024;-89
2023/11/30 05:49:48;;;;;;;15.60;9.60;;;;;;;;;;5065918;28;20032;-88
2023/11/30 05:52:13;;;;;;;12.90;8.95;;;;;;;;;;5071621;28;20024;-88
2023/11/30 05:54:39;;;;;;;16.05;9.82;;;;;;;;;;5056432;28;20032;-87
2023/11/30 05:57:04;;;;;;;15.90;9.55;;;;;;;;;;5067014;28;20025;-80
2023/11/30 05:59:30;;;;;;;13.98;9.15;;;;;;;;;;5065624;28;20086;-80
2023/11/30 06:01:55;;;;;;;14.45;9.50;;;;;;;;;;5068726;28;20108;-80
2023/11/30 06:04:23;;;;;;;15.27;9.30;;;;;;;;;;5069584;28;20028;-80
2023/11/30 06:06:48;;;;;;;16.63;9.05;;;;;;;;;;5066250;28;20056;-80
2023/11/30 06:09:15;;;;;;;13.25;8.98;;;;;;;;;;5067513;28;20056;-80
2023/11/30 06:11:41;;;;;;;17.42;9.73;;;;;;;;;;5068668;28;20469;-80
2023/11/30 06:14:06;;;;;;;15.07;9.23;;;;;;;;;;5073369;28;20094;-80
2023/11/30 06:16:32;;;;;;;15.60;9.80;;;;;;;;;;5071153;28;20432;-80
2023/11/30 06:18:57;;;;;;;15.98;9.93;;;;;;;;;;5063619;28;20017;-80
2023/11/30 06:21:22;;;;;;;15.80;10.43;;;;;;;;;;5069547;28;20032;-80
2023/11/30 06:23:48;;;;;;;16.40;9.95;;;;;;;;;;5062282;28;20445;-80
2023/11/30 06:26:13;;;;;;;17.88;9.85;;;;;;;;;;5067208;28;20025;-80
2023/11/30 06:28:40;;;;;;;17.02;9.70;;;;;;;;;;5064685;28;20086;-80
2023/11/30 06:31:06;;;;;;;17.70;10.00;;;;;;;;;;5070233;28;20021;-80
2023/11/30 06:33:31;;;;;;;18.80;9.70;;;;;;;;;;5063906;28;20040;-80
2023/11/30 06:35:57;;;;;;;18.42;9.73;;;;;;;;;;5071701;28;20024;-80
2023/11/30 06:38:22;;;;;;;17.80;9.63;;;;;;;;;;5066199;28;20029;-80
2023/11/30 06:40:48;;;;;;;15.70;9.48;;;;;;;;;;5065419;28;20496;-81
2023/11/30 06:43:14;;;;;;;16.33;9.27;;;;;;;;;;5070742;28;20031;-80
2023/11/30 06:45:39;;;;;;;15.45;9.32;;;;;;;;;;5064978;28;20391;-80
2023/11/30 06:48:05;;;;;;;16.92;9.23;;;;;;;;;;5061792;28;20028;-80
2023/11/30 06:50:30;;;;;;;15.50;9.48;;;;;;;;;;5067330;28;20119;-81
2023/11/30 06:52:56;;;;;;;15.63;9.25;;;;;;;;;;5067464;28;20032;-80
2023/11/30 06:55:22;;;;;;;16.52;9.80;;;;;;;;;;5066758;28;20114;-80
2023/11/30 06:57:48;;;;;;;14.07;8.73;;;;;;;;;;5061692;28;20028;-80
2023/11/30 07:00:15;;;;;;;14.88;8.65;;;;;;;;;;4999421;28;2075702;-80
2023/11/30 07:02:41;;;;;;;16.33;9.10;;;;;;;;;;5069974;28;20139;-80
2023/11/30 07:05:06;;;;;;;18.08;10.13;;;;;;;;;;5073754;28;20469;-80
2023/11/30 07:07:33;;;;;;;15.18;8.88;;;;;;;;;;5064629;28;20469;-80
2023/11/30 07:10:02;;;;;;;17.42;9.73;;;;;;;;;;5070638;28;20417;-80
2023/11/30 07:12:27;;;;;;;18.05;9.10;;;;;;;;;;5071295;28;20028;-80
2023/11/30 07:14:53;;;;;;;15.50;8.65;;;;;;;;;;5073158;28;20091;-80
2023/11/30 07:17:23;;;;;;;17.38;9.77;;;;;;;;;;5073334;28;20443;-80
2023/11/30 07:19:49;;;;;;;15.90;9.63;;;;;;;;;;5072468;28;20017;-80
2023/11/30 07:22:14;;;;;;;14.60;9.30;;;;;;;;;;5068733;28;20492;-80
2023/11/30 07:24:39;;;;;;;16.85;9.20;;;;;;;;;;5069468;28;20032;-80
2023/11/30 07:27:05;;;;;;;15.35;9.43;;;;;;;;;;5065056;28;20064;-80
2023/11/30 07:29:33;;;;;;;16.10;8.90;;;;;;;;;;5066251;28;20301;-80
2023/11/30 07:31:58;;;;;;;14.40;8.77;;;;;;;;;;5069969;28;20023;-80
2023/11/30 07:34:24;;;;;;;12.45;8.20;;;;;;;;;;5073411;28;20017;-80
2023/11/30 07:36:49;;;;;;;14.18;8.77;;;;;;;;;;5071722;28;20086;-80
2023/11/30 07:39:15;;;;;;;15.38;9.20;;;;;;;;;;5070354;28;20475;-80
2023/11/30 07:41:40;;;;;;;12.88;8.50;;;;;;;;;;5066378;28;20047;-80
2023/11/30 07:44:05;;;;;;;13.23;8.52;;;;;;;;;;5072523;28;20108;-80
2023/11/30 07:46:31;;;;;;;14.48;8.55;;;;;;;;;;5062997;28;20033;-80
2023/11/30 07:48:56;;;;;;;14.40;8.88;;;;;;;;;;5074174;28;20016;-80
2023/11/30 07:51:23;;;;;;;13.48;8.70;;;;;;;;;;5069770;28;20024;-80
2023/11/30 07:53:49;;;;;;;14.13;9.10;;;;;;;;;;5063784;28;20036;-80
2023/11/30 07:56:20;;;;;;;16.75;9.18;;;;;;;;;;5071872;28;20025;-80
2023/11/30 07:58:45;;;;;;;15.70;9.40;;;;;;;;;;5066261;28;20059;-87
2023/11/30 08:01:11;;;;;;;15.27;9.57;;;;;;;;;;5063798;28;20589;-87
2023/11/30 08:03:37;;;;;;;16.67;9.63;;;;;;;;;;5071976;28;20035;-87
2023/11/30 08:06:02;;;;;;;15.25;9.80;;;;;;;;;;5065326;28;20108;-87
2023/11/30 08:08:28;;;;;;;16.48;10.02;;;;;;;;;;5065363;28;20032;-88
2023/11/30 08:10:53;;;;;;;17.80;9.65;;;;;;;;;;5070989;28;20054;-88
2023/11/30 08:13:19;;;;;;;16.88;9.77;;;;;;;;;;5064895;28;20029;-87
2023/11/30 08:15:45;;;;;;;16.70;10.02;;;;;;;;;;5062812;28;20035;-88
2023/11/30 08:18:12;;;;;;;19.30;10.45;;;;;;;;;;5063748;28;20024;-87
2023/11/30 08:20:37;;;;;;;16.95;9.70;;;;;;;;;;5069422;28;20108;-87
2023/11/30 08:23:03;;;;;;;18.42;10.30;;;;;;;;;;5063248;28;20111;-88
2023/11/30 08:25:28;;;;;;;16.30;10.32;;;;;;;;;;5064666;28;20054;-87
2023/11/30 08:27:54;;;;;;;16.00;9.93;;;;;;;;;;5069568;28;20547;-87
2023/11/30 08:30:19;;;;;;;19.05;11.43;;;;;;;;;;5067840;28;20028;-88
2023/11/30 08:32:45;;;;;;;17.98;10.63;;;;;;;;;;5072747;28;20089;-87
2023/11/30 08:35:11;;;;;;;16.83;10.73;;;;;;;;;;5068068;28;20025;-88
2023/11/30 08:37:36;;;;;;;17.63;10.93;;;;;;;;;;5067140;28;20489;-87
2023/11/30 08:40:04;;;;;;;18.10;10.93;;;;;;;;;;5067107;28;20115;-87
2023/11/30 08:42:29;;;;;;;18.42;11.55;;;;;;;;;;5065548;28;20078;-87
2023/11/30 08:44:54;;;;;;;17.52;11.30;;;;;;;;;;5069965;28;20047;-87
2023/11/30 08:47:20;;;;;;;18.00;10.52;;;;;;;;;;5069345;28;20025;-87
2023/11/30 08:49:45;;;;;;;17.75;9.60;;;;;;;;;;5069187;28;20111;-88
2023/11/30 08:52:11;;;;;;;19.05;10.82;;;;;;;;;;5059583;28;20394;-87
2023/11/30 08:54:37;;;;;;;18.33;11.05;;;;;;;;;;5058725;28;20036;-88
2023/11/30 08:57:04;;;;;;;18.48;11.13;;;;;;;;;;5066559;28;20032;-87
2023/11/30 08:59:30;;;;;;;21.17;11.95;;;;;;;;;;5067094;28;20041;-87
2023/11/30 09:01:55;;;;;;;19.50;12.63;;;;;;;;;;5069684;28;20059;-86
2023/11/30 09:04:21;;;;;;;17.60;11.02;;;;;;;;;;5067650;28;20437;-87
2023/11/30 09:06:47;;;;;;;18.63;12.18;;;;;;;;;;5065194;28;20083;-79
2023/11/30 09:09:13;;;;;;;19.27;11.48;;;;;;;;;;5064332;28;20136;-79
2023/11/30 09:11:38;;;;;;;19.55;11.00;;;;;;;;;;5055614;28;20120;-79
2023/11/30 09:14:04;;;;;;;20.35;11.90;;;;;;;;;;5065164;28;20474;-79
2023/11/30 09:16:31;;;;;;;23.58;13.20;;;;;;;;;;5070470;28;20021;-80
2023/11/30 09:18:56;;;;;;;22.35;12.85;;;;;;;;;;5063634;28;20047;-79
2023/11/30 09:21:23;;;;;;;22.35;11.88;;;;;;;;;;5065247;28;20024;-80
2023/11/30 09:23:48;;;;;;;20.58;12.48;;;;;;;;;;5062561;28;20028;-79
2023/11/30 09:26:14;;;;;;;19.77;12.02;;;;;;;;;;5066344;28;20363;-80
2023/11/30 09:28:39;;;;;;;19.40;11.60;;;;;;;;;;5063014;28;20439;-79
2023/11/30 09:31:06;;;;;;;24.20;12.65;;;;;;;;;;5061358;28;20028;-79
2023/11/30 09:33:31;;;;;;;22.88;12.02;;;;;;;;;;5065213;28;20021;-79
2023/11/30 09:35:59;;;;;;;21.30;12.18;;;;;;;;;;5068268;28;20036;-80
2023/11/30 09:38:24;;;;;;;22.98;13.48;;;;;;;;;;5059499;28;20024;-80
2023/11/30 09:40:51;;;;;;;23.55;13.15;;;;;;;;;;5063983;28;20024;-80
2023/11/30 09:43:17;;;;;;;22.80;12.82;;;;;;;;;;5061805;28;20490;-79
2023/11/30 09:45:46;;;;;;;24.75;13.77;;;;;;;;;;5061797;28;20031;-80
2023/11/30 09:48:12;;;;;;;23.52;13.57;;;;;;;;;;5059963;28;20158;-80
2023/11/30 09:50:39;;;;;;;25.88;14.10;;;;;;;;;;5067468;28;20089;-80
2023/11/30 09:53:04;;;;;;;24.00;13.60;;;;;;;;;;5070622;28;20543;-80
2023/11/30 09:55:30;;;;;;;26.55;14.10;;;;;;;;;;5068904;28;20078;-80
2023/11/30 09:57:56;;;;;;;26.55;14.73;;;;;;;;;;5062608;28;20054;-79
2023/11/30 10:00:21;;;;;;;26.02;14.55;;;;;;;;;;5067590;28;20504;-80
2023/11/30 10:02:54;;;;;;;23.30;13.80;;;;;;;;;;5070104;28;20041;-79
2023/11/30 10:05:19;;;;;;;25.05;14.27;;;;;;;;;;5065384;28;20489;-80
2023/11/30 10:07:45;;;;;;;24.42;13.82;;;;;;;;;;5070840;28;20044;-80
2023/11/30 10:10:11;;;;;;;23.13;14.07;;;;;;;;;;5066143;28;20017;-80
2023/11/30 10:12:40;;;;;;;23.70;13.57;;;;;;;;;;5066067;28;20043;-80
2023/11/30 10:15:06;;;;;;;26.42;14.02;;;;;;;;;;5070375;28;20016;-79
2023/11/30 10:17:31;;;;;;;25.20;14.45;;;;;;;;;;5074608;28;20506;-87
2023/11/30 10:19:57;;;;;;;22.20;13.18;;;;;;;;;;5065891;28;20108;-87
2023/11/30 10:22:22;;;;;;;24.83;14.43;;;;;;;;;;5074129;28;20028;-87
2023/11/30 10:24:51;;;;;;;23.55;13.57;;;;;;;;;;5069485;28;20060;-87
2023/11/30 10:27:21;;;;;;;24.75;13.40;;;;;;;;;;5071171;28;20436;-88
2023/11/30 10:29:48;;;;;;;24.38;14.32;;;;;;;;;;5074880;28;20482;-87
2023/11/30 10:32:14;;;;;;;25.40;15.13;;;;;;;;;;5073852;28;20490;-87
2023/11/30 10:34:46;;;;;;;24.90;15.00;;;;;;;;;;5072863;28;20027;-88
2023/11/30 10:37:13;;;;;;;26.55;15.38;;;;;;;;;;5056921;28;20039;-88
2023/11/30 10:39:42;;;;;;;24.65;13.98;;;;;;;;;;5071709;28;20028;-88
2023/11/30 10:42:11;;;;;;;23.42;14.00;;;;;;;;;;5071028;28;20028;-87
2023/11/30 10:44:38;;;;;;;26.42;15.32;;;;;;;;;;5069679;28;20025;-87
2023/11/30 10:47:07;;;;;;;25.10;15.18;;;;;;;;;;5068504;28;20047;-87
2023/11/30 10:49:33;;;;;;;26.00;14.13;;;;;;;;;;5068318;28;20116;-88
2023/11/30 10:52:00;;;;;;;28.80;14.60;;;;;;;;;;5069518;28;20024;-87
2023/11/30 10:54:32;;;;;;;26.20;14.77;;;;;;;;;;5074250;28;20036;-87
2023/11/30 10:56:59;;;;;;;26.17;14.85;;;;;;;;;;5071477;28;20028;-87
2023/11/30 10:59:28;;;;;;;29.25;15.95;;;;;;;;;;5065663;28;20487;-87
2023/11/30 11:01:54;;;;;;;26.65;14.75;;;;;;;;;;5087471;28;20502;-87
2023/11/30 11:04:23;;;;;;;27.20;15.43;;;;;;;;;;5071636;28;20033;-88
2023/11/30 11:06:48;;;;;;;29.52;15.82;;;;;;;;;;5071184;28;20024;-88
2023/11/30 11:09:15;;;;;;;25.63;15.27;;;;;;;;;;5068623;28;20078;-87
2023/11/30 11:11:43;;;;;;;27.55;15.20;;;;;;;;;;5068698;28;20573;-87
2023/11/30 11:14:24;;;;;;;25.98;15.40;;;;;;;;;;5065049;28;20074;-87
2023/11/30 11:16:51;;;;;;;26.15;13.98;;;;;;;;;;5069886;28;20032;-88
2023/11/30 11:19:17;;;;;;;29.67;15.70;;;;;;;;;;5071298;28;20025;-87
2023/11/30 11:21:42;;;;;;;28.55;16.15;;;;;;;;;;5072571;28;20078;-87
2023/11/30 11:24:08;;;;;;;29.02;15.65;;;;;;;;;;5071669;28;20020;-87
2023/11/30 11:26:47;;;;;;;29.70;15.93;;;;;;;;;;5066656;28;20478;-87
2023/11/30 11:29:15;;;;;;;27.92;15.75;;;;;;;;;;5062911;28;20425;-80
2023/11/30 11:31:43;;;;;;;28.20;16.08;;;;;;;;;;5069465;28;20103;-79
2023/11/30 11:34:10;;;;;;;26.52;14.48;;;;;;;;;;5069711;28;20075;-80
2023/11/30 11:36:39;;;;;;;28.17;16.25;;;;;;;;;;5065132;28;20048;-80
2023/11/30 11:39:05;;;;;;;33.08;16.58;;;;;;;;;;5070002;28;20112;-79
2023/11/30 11:41:31;;;;;;;31.40;17.55;;;;;;;;;;5067671;28;20012;-80
2023/11/30 11:43:57;;;;;;;31.83;17.20;;;;;;;;;;5063689;28;20614;-80
2023/11/30 11:46:23;;;;;;;29.73;18.17;;;;;;;;;;5066271;28;20030;-80
2023/11/30 11:48:48;;;;;;;28.20;16.95;;;;;;;;;;5069791;28;20025;-87
2023/11/30 11:51:14;;;;;;;32.97;18.25;;;;;;;;;;5071344;28;20035;-87
2023/11/30 11:53:42;;;;;;;31.08;17.67;;;;;;;;;;5066373;28;20159;-87
2023/11/30 11:56:09;;;;;;;32.28;18.38;;;;;;;;;;5071981;28;20051;-87
2023/11/30 11:58:35;;;;;;;27.52;16.13;;;;;;;;;;5067545;28;20021;-87
2023/11/30 12:01:00;;;;;;;28.27;16.50;;;;;;;;;;5065421;28;20401;-86
2023/11/30 12:03:26;;;;;;;30.23;17.20;;;;;;;;;;5059750;28;20029;-86
2023/11/30 12:05:51;;;;;;;30.67;17.52;;;;;;;;;;5067111;28;20033;-85
2023/11/30 12:08:27;;;;;;;29.90;16.90;;;;;;;;;;5071873;28;20039;-87
2023/11/30 12:10:52;;;;;;;30.70;17.17;;;;;;;;;;5065350;28;20489;-86
2023/11/30 12:13:22;;;;;;;31.75;17.27;;;;;;;;;;5067081;28;20031;-87
2023/11/30 12:15:48;;;;;;;31.65;17.70;;;;;;;;;;5065542;28;20033;-87
2023/11/30 12:18:13;;;;;;;32.08;18.73;;;;;;;;;;5058833;28;20032;-87
2023/11/30 12:20:39;;;;;;;33.38;18.50;;;;;;;;;;5069300;28;20024;-88
2023/11/30 12:23:04;;;;;;;29.92;17.85;;;;;;;;;;5064673;28;20020;-88
2023/11/30 12:25:30;;;;;;;33.05;17.65;;;;;;;;;;5067700;28;20111;-88
2023/11/30 12:27:55;;;;;;;33.67;18.23;;;;;;;;;;5059239;28;20092;-88
2023/11/30 12:30:22;;;;;;;33.17;17.65;;;;;;;;;;5062660;28;20070;-88
2023/11/30 12:32:48;;;;;;;31.15;18.08;;;;;;;;;;5065517;28;20032;-88
2023/11/30 12:35:15;;;;;;;32.05;18.30;;;;;;;;;;5069416;28;20467;-89
2023/11/30 12:37:40;;;;;;;31.77;18.65;;;;;;;;;;5071666;28;20020;-88
2023/11/30 12:40:08;;;;;;;32.55;18.65;;;;;;;;;;5066521;28;20074;-88
2023/11/30 12:42:35;;;;;;;33.90;18.08;;;;;;;;;;5064216;28;20024;-88
2023/11/30 12:45:01;;;;;;;30.92;17.40;;;;;;;;;;5071444;28;20021;-89
2023/11/30 12:47:26;;;;;;;34.85;17.70;;;;;;;;;;5064831;28;20052;-89
2023/11/30 12:49:52;;;;;;;30.42;17.58;;;;;;;;;;5069386;28;20032;-88
2023/11/30 12:52:17;;;;;;;34.50;18.45;;;;;;;;;;5064170;28;20020;-89
2023/11/30 12:54:44;;;;;;;29.38;16.80;;;;;;;;;;5064800;28;20032;-88
2023/11/30 12:57:09;;;;;;;33.25;17.48;;;;;;;;;;5064150;28;20032;-80
2023/11/30 12:59:36;;;;;;;40.53;19.52;;;;;;;;;;5068099;28;20012;-80
2023/11/30 13:02:02;;;;;;;30.95;17.05;;;;;;;;;;5063274;28;20579;-79
2023/11/30 13:04:27;;;;;;;36.08;19.05;;;;;;;;;;5061970;28;20040;-80
2023/11/30 13:06:55;;;;;;;30.60;17.33;;;;;;;;;;5069063;28;20040;-80
2023/11/30 13:09:20;;;;;;;33.20;18.25;;;;;;;;;;5070536;28;20020;-80
2023/11/30 13:11:46;;;;;;;34.80;18.63;;;;;;;;;;5069110;28;20021;-79
2023/11/30 13:14:12;;;;;;;32.78;18.30;;;;;;;;;;5070152;28;20028;-80
2023/11/30 13:16:38;;;;;;;33.92;18.55;;;;;;;;;;5062558;28;20120;-80
2023/11/30 13:19:05;;;;;;;35.40;18.92;;;;;;;;;;5068267;28;20555;-79
2023/11/30 13:21:31;;;;;;;34.20;17.75;;;;;;;;;;5059747;28;20032;-80
2023/11/30 13:23:56;;;;;;;33.58;17.95;;;;;;;;;;5060768;28;20078;-80
2023/11/30 13:26:21;;;;;;;33.53;18.10;;;;;;;;;;5062766;28;20036;-80
2023/11/30 13:28:48;;;;;;;34.13;17.98;;;;;;;;;;5073323;28;20029;-80
2023/11/30 13:31:14;;;;;;;34.13;18.38;;;;;;;;;;5073321;28;20048;-80
2023/11/30 13:33:39;;;;;;;33.40;18.58;;;;;;;;;;5068854;28;20055;-80
2023/11/30 13:36:06;;;;;;;35.22;18.90;;;;;;;;;;5073141;28;20040;-80
2023/11/30 13:38:33;;;;;;;34.78;19.05;;;;;;;;;;5070108;28;20020;-80
2023/11/30 13:40:59;;;;;;;32.13;17.85;;;;;;;;;;5074170;28;20389;-80
2023/11/30 13:43:25;;;;;;;34.60;17.33;;;;;;;;;;5068133;28;20025;-80
2023/11/30 13:45:51;;;;;;;33.15;18.33;;;;;;;;;;5072114;28;20496;-80
2023/11/30 13:48:17;;;;;;;36.50;18.85;;;;;;;;;;5070786;28;20048;-89
2023/11/30 13:50:46;;;;;;;34.63;19.27;;;;;;;;;;5074772;28;20474;-89
2023/11/30 13:53:15;;;;;;;37.00;20.27;;;;;;;;;;5067596;28;20390;-88
2023/11/30 13:55:42;;;;;;;37.08;19.27;;;;;;;;;;5071415;28;20625;-89
2023/11/30 13:58:09;;;;;;;35.95;19.45;;;;;;;;;;5072784;28;20024;-89
2023/11/30 14:00:35;;;;;;;34.13;18.30;;;;;;;;;;5068861;28;20047;-88
2023/11/30 14:03:01;;;;;;;34.35;18.40;;;;;;;;;;5065979;28;20405;-89
2023/11/30 14:05:27;;;;;;;37.70;20.05;;;;;;;;;;5070087;28;20050;-88
2023/11/30 14:07:53;;;;;;;35.38;19.00;;;;;;;;;;5066188;28;20032;-80
2023/11/30 14:10:19;;;;;;;38.97;18.75;;;;;;;;;;5062698;28;20025;-80
2023/11/30 14:12:44;;;;;;;32.28;16.40;;;;;;;;;;5070864;28;20024;-80
2023/11/30 14:15:11;;;;;;;31.45;17.83;;;;;;;;;;5062341;28;20381;-80
2023/11/30 14:17:40;;;;;;;31.27;16.92;;;;;;;;;;5070799;28;20024;-80